Time;durP1;ratioP1;P1;durP2;ratioP2;P2;SDS_P1;SDS_P2;PMS_P1;PMS_P2;Temp;Humidity;BMP_temperature;BMP_pressure;BME280_temperature;BME280_humidity;BME280_pressure;Samples;Min_cycle;Max_cycle;Signal;HPM_P1;HPM_P2
2022/01/17 00:01:33;;;;;;;0.25;0.10;;;;;;;;;;5053438;28;20017;-65
2022/01/17 00:03:59;;;;;;;0.38;0.20;;;;;;;;;;5051848;28;20020;-65
2022/01/17 00:06:24;;;;;;;0.63;0.10;;;;;;;;;;5052864;28;20091;-65
2022/01/17 00:08:49;;;;;;;1.10;0.23;;;;;;;;;;5053094;28;20078;-66
2022/01/17 00:11:16;;;;;;;0.10;0.10;;;;;;;;;;5052991;28;20713;-65
2022/01/17 00:13:41;;;;;;;0.32;0.10;;;;;;;;;;5053005;28;20032;-65
2022/01/17 00:16:13;;;;;;;1.15;0.35;;;;;;;;;;5052877;28;20092;-65
2022/01/17 00:21:04;;;;;;;0.65;0.20;;;;;;;;;;5052760;28;20035;-65
2022/01/17 00:23:29;;;;;;;0.52;0.22;;;;;;;;;;5052786;28;20136;-65
2022/01/17 00:25:54;;;;;;;0.10;0.10;;;;;;;;;;5052552;28;20024;-65
2022/01/17 00:28:20;;;;;;;0.67;0.20;;;;;;;;;;5052677;28;20179;-65
2022/01/17 00:30:45;;;;;;;1.27;0.20;;;;;;;;;;5052683;28;20027;-66
2022/01/17 00:33:11;;;;;;;1.38;0.30;;;;;;;;;;5052297;28;20123;-65
2022/01/17 00:35:36;;;;;;;0.30;0.20;;;;;;;;;;5052630;28;20353;-65
2022/01/17 00:38:01;;;;;;;0.35;0.20;;;;;;;;;;5052602;28;20392;-65
2022/01/17 00:40:26;;;;;;;0.53;0.20;;;;;;;;;;5052528;28;20101;-65
2022/01/17 00:42:51;;;;;;;1.15;0.15;;;;;;;;;;5052297;28;20523;-65
2022/01/17 00:45:19;;;;;;;0.82;0.30;;;;;;;;;;5051867;28;20024;-65
2022/01/17 00:47:45;;;;;;;0.30;0.25;;;;;;;;;;5052294;28;20449;-66
2022/01/17 00:50:11;;;;;;;0.20;0.20;;;;;;;;;;5052253;28;20228;-65
2022/01/17 00:52:36;;;;;;;0.30;0.13;;;;;;;;;;5051087;28;20112;-65
2022/01/17 00:55:01;;;;;;;0.43;0.20;;;;;;;;;;5051819;28;20041;-65
2022/01/17 00:57:26;;;;;;;0.25;0.20;;;;;;;;;;5052713;28;20033;-65
2022/01/17 00:59:51;;;;;;;0.20;0.20;;;;;;;;;;5052330;28;20032;-65
2022/01/17 01:02:17;;;;;;;1.13;0.30;;;;;;;;;;5052039;28;20048;-65
2022/01/17 01:04:42;;;;;;;1.23;0.20;;;;;;;;;;5051960;28;20469;-65
2022/01/17 01:07:07;;;;;;;0.25;0.10;;;;;;;;;;5051805;28;20021;-65
2022/01/17 01:09:40;;;;;;;0.20;0.13;;;;;;;;;;5052159;28;20021;-66
2022/01/17 01:12:05;;;;;;;0.10;0.10;;;;;;;;;;5050799;28;20624;-66
2022/01/17 01:14:30;;;;;;;0.77;0.20;;;;;;;;;;5052142;28;20066;-66
2022/01/17 01:16:57;;;;;;;1.27;0.20;;;;;;;;;;5051877;28;20403;-65
2022/01/17 01:22:10;;;;;;;0.47;0.30;;;;;;;;;;5052340;28;20025;-66
2022/01/17 01:30:02;;;;;;;0.80;0.10;;;;;;;;;;5051972;28;20037;-65
2022/01/17 01:32:36;;;;;;;0.30;0.20;;;;;;;;;;5051963;28;20020;-65
2022/01/17 01:35:02;;;;;;;;;;;;;;;;;;5052093;28;20024;-65
2022/01/17 01:37:27;;;;;;;0.25;0.25;;;;;;;;;;5050457;28;20011;-65
2022/01/17 01:39:54;;;;;;;0.20;0.20;;;;;;;;;;5051908;28;20357;-65
2022/01/17 01:42:20;;;;;;;0.82;0.30;;;;;;;;;;5051890;28;20341;-65
2022/01/17 01:44:48;;;;;;;0.30;0.10;;;;;;;;;;5051818;28;20021;-65
2022/01/17 01:47:13;;;;;;;0.15;0.10;;;;;;;;;;5051463;28;20063;-65
2022/01/17 01:49:39;;;;;;;0.60;0.30;;;;;;;;;;5051773;28;20024;-66
2022/01/17 01:52:04;;;;;;;0.60;0.10;;;;;;;;;;5051668;28;20020;-66
2022/01/17 01:54:30;;;;;;;0.45;0.20;;;;;;;;;;5051698;28;20105;-66
2022/01/17 01:56:56;;;;;;;1.08;0.20;;;;;;;;;;5052088;28;20028;-67
2022/01/17 01:59:22;;;;;;;0.47;0.20;;;;;;;;;;5054037;28;20025;-65
2022/01/17 02:01:48;;;;;;;0.63;0.10;;;;;;;;;;5054042;28;20028;-67
2022/01/17 02:04:13;;;;;;;0.22;0.20;;;;;;;;;;5062675;23;20095;-67
2022/01/17 02:06:39;;;;;;;0.22;0.10;;;;;;;;;;5055703;28;20472;-66
2022/01/17 02:09:07;;;;;;;1.05;0.22;;;;;;;;;;5055126;28;20024;-65
2022/01/17 02:11:33;;;;;;;0.60;0.13;;;;;;;;;;5055294;28;20013;-65
2022/01/17 02:13:58;;;;;;;1.15;0.25;;;;;;;;;;5054011;28;20063;-65
2022/01/17 02:16:23;;;;;;;0.47;0.20;;;;;;;;;;5055449;28;20096;-65
2022/01/17 02:18:49;;;;;;;0.80;0.20;;;;;;;;;;5055218;28;20100;-65
2022/01/17 02:23:40;;;;;;;0.80;0.50;;;;;;;;;;5055466;28;20017;-66
2022/01/17 02:26:05;;;;;;;0.55;0.20;;;;;;;;;;5054984;28;20246;-65
2022/01/17 02:28:33;;;;;;;0.30;0.10;;;;;;;;;;5055090;28;20021;-65
2022/01/17 02:31:05;;;;;;;0.60;0.10;;;;;;;;;;5054769;28;20317;-65
2022/01/17 02:33:34;;;;;;;0.22;0.20;;;;;;;;;;5054798;28;20040;-65
2022/01/17 02:36:00;;;;;;;0.30;0.30;;;;;;;;;;5054858;28;20534;-65
2022/01/17 02:38:25;;;;;;;0.65;0.10;;;;;;;;;;5054810;28;20040;-65
2022/01/17 02:40:51;;;;;;;0.85;0.20;;;;;;;;;;5054738;28;20096;-66
2022/01/17 02:43:18;;;;;;;0.13;0.10;;;;;;;;;;5053373;28;20017;-65
2022/01/17 02:48:31;;;;;;;0.55;0.32;;;;;;;;;;5032132;28;20080;-65
2022/01/17 02:50:58;;;;;;;0.52;0.30;;;;;;;;;;5032038;28;20033;-65
2022/01/17 02:53:24;;;;;;;1.60;0.40;;;;;;;;;;5031969;28;20104;-66
2022/01/17 02:55:50;;;;;;;0.40;0.20;;;;;;;;;;5032236;28;20583;-66
2022/01/17 02:58:17;;;;;;;0.10;0.10;;;;;;;;;;5031946;28;20075;-67
2022/01/17 03:00:43;;;;;;;0.32;0.28;;;;;;;;;;5031939;28;20041;-66
2022/01/17 03:03:12;;;;;;;0.17;0.13;;;;;;;;;;5031636;28;20029;-65
2022/01/17 03:05:38;;;;;;;0.10;0.10;;;;;;;;;;5031759;28;20048;-67
2022/01/17 03:08:03;;;;;;;0.47;0.17;;;;;;;;;;5031803;28;20045;-66
2022/01/17 03:10:39;;;;;;;0.28;0.15;;;;;;;;;;5031382;28;20125;-66
2022/01/17 03:13:10;;;;;;;0.20;0.20;;;;;;;;;;5014962;28;20032;-65
2022/01/17 03:15:35;;;;;;;1.33;0.30;;;;;;;;;;5031925;28;20532;-65
2022/01/17 03:18:01;;;;;;;0.50;0.10;;;;;;;;;;5031807;28;20117;-65
2022/01/17 03:20:26;;;;;;;0.20;0.10;;;;;;;;;;5031716;28;20037;-65
2022/01/17 03:22:51;;;;;;;0.38;0.20;;;;;;;;;;5031569;28;20060;-66
2022/01/17 03:25:16;;;;;;;1.17;0.70;;;;;;;;;;5039680;28;20370;-65
2022/01/17 03:27:42;;;;;;;0.60;0.32;;;;;;;;;;5053984;28;20021;-65
2022/01/17 03:30:07;;;;;;;0.30;0.20;;;;;;;;;;5053792;28;20044;-65
2022/01/17 03:32:32;;;;;;;0.52;0.13;;;;;;;;;;5053723;28;20255;-65
2022/01/17 03:34:57;;;;;;;0.53;0.17;;;;;;;;;;5053659;28;20103;-65
2022/01/17 03:37:23;;;;;;;0.43;0.30;;;;;;;;;;5053518;28;20029;-65
2022/01/17 03:39:48;;;;;;;0.68;0.20;;;;;;;;;;5053854;28;20590;-65
2022/01/17 03:42:14;;;;;;;1.35;0.10;;;;;;;;;;5053371;28;20016;-65
2022/01/17 03:44:39;;;;;;;0.32;0.10;;;;;;;;;;5053704;28;20028;-66
2022/01/17 03:47:04;;;;;;;0.10;0.10;;;;;;;;;;5053257;28;20372;-66
2022/01/17 03:49:29;;;;;;;0.40;0.10;;;;;;;;;;5053418;28;20383;-65
2022/01/17 03:51:54;;;;;;;0.40;0.13;;;;;;;;;;5053535;28;20384;-66
2022/01/17 03:54:19;;;;;;;0.43;0.32;;;;;;;;;;5053303;28;20031;-65
2022/01/17 03:56:45;;;;;;;0.30;0.10;;;;;;;;;;5053393;28;20100;-65
2022/01/17 03:59:11;;;;;;;1.95;0.40;;;;;;;;;;5052955;28;20250;-65
2022/01/17 04:01:36;;;;;;;0.03;0.03;;;;;;;;;;5053263;28;20400;-65
2022/01/17 04:04:02;;;;;;;0.40;0.28;;;;;;;;;;5052980;28;20048;-65
2022/01/17 04:06:27;;;;;;;0.30;0.30;;;;;;;;;;5053118;28;20062;-65
2022/01/17 04:08:52;;;;;;;0.82;0.30;;;;;;;;;;5053025;28;20784;-66
2022/01/17 04:11:17;;;;;;;0.20;0.17;;;;;;;;;;5052833;28;20017;-66
2022/01/17 04:13:42;;;;;;;0.47;0.10;;;;;;;;;;5053069;28;20029;-66
2022/01/17 04:16:07;;;;;;;0.20;0.20;;;;;;;;;;5052920;28;20246;-64
2022/01/17 04:18:33;;;;;;;0.28;0.25;;;;;;;;;;5052993;28;20021;-66
2022/01/17 04:21:01;;;;;;;0.63;0.20;;;;;;;;;;5051716;28;20063;-65
2022/01/17 04:23:26;;;;;;;0.60;0.20;;;;;;;;;;5052763;28;20075;-67
2022/01/17 04:25:52;;;;;;;0.65;0.45;;;;;;;;;;5051577;28;20021;-66
2022/01/17 04:28:17;;;;;;;0.33;0.10;;;;;;;;;;5052743;28;20033;-65
2022/01/17 04:30:43;;;;;;;0.67;0.20;;;;;;;;;;5052670;28;20376;-65
2022/01/17 04:33:08;;;;;;;0.32;0.20;;;;;;;;;;5052325;28;20333;-65
2022/01/17 04:35:35;;;;;;;0.20;0.17;;;;;;;;;;5051389;28;20421;-65
2022/01/17 04:38:01;;;;;;;0.73;0.20;;;;;;;;;;5052908;28;20418;-66
2022/01/17 04:40:33;;;;;;;0.20;0.20;;;;;;;;;;5052505;28;20021;-66
2022/01/17 04:42:59;;;;;;;0.30;0.20;;;;;;;;;;5052082;28;20477;-66
2022/01/17 04:45:24;;;;;;;0.10;0.10;;;;;;;;;;5051051;28;20120;-65
2022/01/17 04:47:51;;;;;;;0.20;0.10;;;;;;;;;;5052575;28;20024;-65
2022/01/17 04:50:17;;;;;;;1.30;0.17;;;;;;;;;;5052312;28;20062;-65
2022/01/17 04:52:43;;;;;;;0.30;0.10;;;;;;;;;;5052637;28;20374;-65
2022/01/17 04:55:09;;;;;;;0.30;0.20;;;;;;;;;;5052066;28;20021;-65
2022/01/17 04:57:35;;;;;;;0.82;0.10;;;;;;;;;;5052446;28;20025;-65
2022/01/17 05:00:00;;;;;;;0.20;0.10;;;;;;;;;;5052313;28;20353;-65
2022/01/17 05:02:26;;;;;;;0.60;0.15;;;;;;;;;;5052106;28;20092;-66
2022/01/17 05:04:51;;;;;;;0.63;0.20;;;;;;;;;;5050673;28;20484;-65
2022/01/17 05:07:16;;;;;;;0.65;0.30;;;;;;;;;;5051773;28;20028;-66
2022/01/17 05:09:43;;;;;;;0.30;0.10;;;;;;;;;;5052235;28;20017;-65
2022/01/17 05:12:09;;;;;;;0.50;0.22;;;;;;;;;;5052013;28;20465;-65
2022/01/17 05:14:34;;;;;;;0.68;0.30;;;;;;;;;;5052421;28;20031;-66
2022/01/17 05:17:06;;;;;;;0.30;0.22;;;;;;;;;;5052125;28;20029;-67
2022/01/17 05:19:49;;;;;;;0.40;0.25;;;;;;;;;;5052037;28;20372;-65
2022/01/17 05:22:18;;;;;;;0.40;0.40;;;;;;;;;;5051838;28;20017;-65
2022/01/17 05:24:43;;;;;;;0.85;0.40;;;;;;;;;;5051754;28;20021;-66
2022/01/17 05:27:09;;;;;;;0.52;0.20;;;;;;;;;;5051651;28;20423;-66
2022/01/17 05:29:34;;;;;;;0.50;0.20;;;;;;;;;;5052000;28;20044;-65
2022/01/17 05:31:59;;;;;;;0.75;0.30;;;;;;;;;;5052714;28;20647;-66
2022/01/17 05:34:24;;;;;;;0.30;0.17;;;;;;;;;;5056232;28;20406;-65
2022/01/17 05:36:49;;;;;;;0.52;0.13;;;;;;;;;;5056042;28;20262;-65
2022/01/17 05:39:15;;;;;;;0.10;0.10;;;;;;;;;;5055862;28;20029;-66
2022/01/17 05:41:40;;;;;;;0.57;0.13;;;;;;;;;;5055812;28;20756;-65
2022/01/17 05:44:06;;;;;;;0.32;0.20;;;;;;;;;;5055794;28;20024;-67
2022/01/17 05:46:31;;;;;;;0.52;0.10;;;;;;;;;;5055829;28;20023;-67
2022/01/17 05:48:56;;;;;;;0.55;0.40;;;;;;;;;;5055604;28;20066;-66
2022/01/17 05:51:21;;;;;;;0.20;0.10;;;;;;;;;;5054232;28;20491;-66
2022/01/17 05:53:46;;;;;;;1.45;0.20;;;;;;;;;;5055672;28;20056;-66
2022/01/17 05:56:12;;;;;;;0.30;0.20;;;;;;;;;;5055494;28;20060;-66
2022/01/17 05:58:37;;;;;;;0.73;0.10;;;;;;;;;;5055700;28;20057;-65
2022/01/17 06:01:03;;;;;;;0.93;0.20;;;;;;;;;;5054969;28;20059;-65
2022/01/17 06:03:29;;;;;;;0.65;0.43;;;;;;;;;;5055470;28;20013;-67
2022/01/17 06:05:54;;;;;;;0.15;0.10;;;;;;;;;;5055387;28;20053;-66
2022/01/17 06:08:19;;;;;;;1.13;0.20;;;;;;;;;;5055251;28;20105;-66
2022/01/17 06:10:44;;;;;;;1.00;0.20;;;;;;;;;;5055399;28;20365;-66
2022/01/17 06:13:09;;;;;;;0.52;0.10;;;;;;;;;;5054964;28;20487;-67
2022/01/17 06:15:34;;;;;;;0.20;0.10;;;;;;;;;;5055394;28;20025;-66
2022/01/17 06:18:00;;;;;;;0.30;0.30;;;;;;;;;;5055251;28;20621;-66
2022/01/17 06:20:25;;;;;;;1.87;0.50;;;;;;;;;;5055433;28;20258;-66
2022/01/17 06:22:50;;;;;;;0.25;0.20;;;;;;;;;;5055074;28;20270;-66
2022/01/17 06:25:15;;;;;;;0.20;0.10;;;;;;;;;;5054746;28;20487;-67
2022/01/17 06:27:40;;;;;;;0.73;0.25;;;;;;;;;;5055144;28;20029;-67
2022/01/17 06:30:07;;;;;;;0.97;0.20;;;;;;;;;;5054979;28;20028;-67
2022/01/17 06:32:32;;;;;;;0.10;0.10;;;;;;;;;;5055321;28;20238;-66
2022/01/17 06:34:58;;;;;;;1.00;0.35;;;;;;;;;;5054780;28;20518;-66
2022/01/17 06:37:23;;;;;;;0.13;0.10;;;;;;;;;;5054710;28;20392;-65
2022/01/17 06:39:49;;;;;;;0.45;0.15;;;;;;;;;;5053668;28;20443;-67
2022/01/17 06:42:14;;;;;;;0.68;0.10;;;;;;;;;;5054575;28;20025;-66
2022/01/17 06:44:39;;;;;;;1.70;0.20;;;;;;;;;;5053883;28;20037;-65
2022/01/17 06:47:04;;;;;;;0.53;0.10;;;;;;;;;;5054407;28;20024;-66
2022/01/17 06:49:29;;;;;;;0.30;0.10;;;;;;;;;;5054883;28;20337;-66
2022/01/17 06:51:54;;;;;;;0.40;0.10;;;;;;;;;;5054683;28;20468;-66
2022/01/17 06:54:20;;;;;;;0.77;0.10;;;;;;;;;;5054439;28;20079;-65
2022/01/17 06:56:45;;;;;;;1.25;0.20;;;;;;;;;;5054526;28;20481;-66
2022/01/17 06:59:13;;;;;;;0.15;0.10;;;;;;;;;;5054157;28;20025;-66
2022/01/17 07:01:39;;;;;;;0.40;0.10;;;;;;;;;;5054414;28;20040;-66
2022/01/17 07:04:05;;;;;;;0.38;0.20;;;;;;;;;;5054068;28;20029;-65
2022/01/17 07:06:30;;;;;;;0.70;0.25;;;;;;;;;;5054370;28;20104;-66
2022/01/17 07:08:55;;;;;;;0.70;0.35;;;;;;;;;;5052801;28;20342;-66
2022/01/17 07:11:21;;;;;;;0.63;0.17;;;;;;;;;;5054109;28;20025;-66
2022/01/17 07:13:47;;;;;;;0.82;0.30;;;;;;;;;;5054288;28;20667;-67
2022/01/17 07:16:12;;;;;;;0.30;0.22;;;;;;;;;;5054390;28;20029;-66
2022/01/17 07:18:37;;;;;;;0.75;0.20;;;;;;;;;;5054220;28;20887;-67
2022/01/17 07:21:02;;;;;;;0.60;0.15;;;;;;;;;;5053769;28;20029;-67
2022/01/17 07:23:27;;;;;;;0.40;0.20;;;;;;;;;;5054228;28;20020;-67
2022/01/17 07:25:52;;;;;;;0.35;0.10;;;;;;;;;;5053829;28;20035;-66
2022/01/17 07:28:17;;;;;;;0.73;0.20;;;;;;;;;;5053932;28;20036;-66
2022/01/17 07:30:43;;;;;;;1.17;0.20;;;;;;;;;;5054149;28;20095;-66
2022/01/17 07:33:08;;;;;;;0.90;0.20;;;;;;;;;;5053321;28;20112;-66
2022/01/17 07:35:34;;;;;;;0.70;0.10;;;;;;;;;;5054079;28;20020;-66
2022/01/17 07:37:59;;;;;;;0.73;0.30;;;;;;;;;;5054036;28;20017;-66
2022/01/17 07:40:24;;;;;;;0.20;0.10;;;;;;;;;;5053679;28;20162;-66
2022/01/17 07:42:50;;;;;;;0.22;0.20;;;;;;;;;;5053588;28;20757;-66
2022/01/17 07:45:17;;;;;;;0.32;0.28;;;;;;;;;;5053297;28;20091;-67
2022/01/17 07:47:56;;;;;;;0.20;0.20;;;;;;;;;;5052565;28;20380;-66
2022/01/17 07:50:22;;;;;;;0.30;0.28;;;;;;;;;;5053399;28;20013;-65
2022/01/17 07:52:47;;;;;;;0.82;0.15;;;;;;;;;;5052453;28;20035;-66
2022/01/17 07:55:13;;;;;;;0.30;0.20;;;;;;;;;;5053017;28;20021;-66
2022/01/17 07:57:38;;;;;;;0.60;0.20;;;;;;;;;;5052105;28;20021;-66
2022/01/17 08:00:05;;;;;;;0.47;0.15;;;;;;;;;;5053343;28;20053;-66
2022/01/17 08:02:31;;;;;;;0.43;0.20;;;;;;;;;;5053047;28;20047;-66
2022/01/17 08:04:56;;;;;;;0.03;0.03;;;;;;;;;;5052850;28;20033;-66
2022/01/17 08:07:21;;;;;;;0.75;0.35;;;;;;;;;;5053213;28;20013;-66
2022/01/17 08:09:46;;;;;;;0.90;0.20;;;;;;;;;;5051941;28;20017;-66
2022/01/17 08:12:11;;;;;;;0.37;0.07;;;;;;;;;;5053048;28;20040;-66
2022/01/17 08:14:37;;;;;;;0.90;0.20;;;;;;;;;;5051829;28;20090;-66
2022/01/17 08:17:02;;;;;;;0.10;0.10;;;;;;;;;;5052782;28;20024;-66
2022/01/17 08:19:28;;;;;;;0.30;0.10;;;;;;;;;;5052763;28;20025;-67
2022/01/17 08:21:53;;;;;;;0.55;0.20;;;;;;;;;;5052947;28;20031;-66
2022/01/17 08:24:22;;;;;;;0.90;0.10;;;;;;;;;;5052781;28;20021;-66
2022/01/17 08:26:47;;;;;;;0.65;0.30;;;;;;;;;;5052835;28;20257;-66
2022/01/17 08:29:13;;;;;;;0.35;0.20;;;;;;;;;;5052412;28;20025;-66
2022/01/17 08:31:38;;;;;;;0.52;0.30;;;;;;;;;;5052827;28;20032;-66
2022/01/17 08:34:03;;;;;;;0.60;0.30;;;;;;;;;;5052698;28;20021;-68
2022/01/17 08:36:29;;;;;;;1.00;0.20;;;;;;;;;;5052693;28;20033;-67
2022/01/17 08:38:54;;;;;;;0.40;0.10;;;;;;;;;;5052517;28;20269;-66
2022/01/17 08:41:20;;;;;;;0.20;0.20;;;;;;;;;;5052285;28;20325;-67
2022/01/17 08:43:45;;;;;;;0.40;0.30;;;;;;;;;;5052578;28;20021;-66
2022/01/17 08:46:11;;;;;;;0.47;0.30;;;;;;;;;;5052361;28;20024;-67
2022/01/17 08:48:37;;;;;;;0.38;0.20;;;;;;;;;;5052605;28;20017;-67
2022/01/17 08:51:02;;;;;;;0.63;0.30;;;;;;;;;;5052082;28;20741;-66
2022/01/17 08:53:28;;;;;;;0.83;0.20;;;;;;;;;;5052320;28;20028;-67
2022/01/17 08:55:53;;;;;;;0.47;0.20;;;;;;;;;;5052698;28;20025;-66
2022/01/17 08:58:18;;;;;;;1.07;0.57;;;;;;;;;;5052216;28;20024;-67
2022/01/17 09:00:44;;;;;;;0.90;0.30;;;;;;;;;;5052306;28;20250;-67
2022/01/17 09:03:10;;;;;;;0.40;0.30;;;;;;;;;;5051788;28;20044;-67
2022/01/17 09:05:36;;;;;;;0.38;0.20;;;;;;;;;;5052169;28;20037;-66
2022/01/17 09:08:01;;;;;;;0.30;0.10;;;;;;;;;;5050373;28;20019;-66
2022/01/17 09:10:27;;;;;;;0.82;0.40;;;;;;;;;;5050831;28;20017;-66
2022/01/17 09:12:52;;;;;;;0.85;0.20;;;;;;;;;;5052114;28;20489;-66
2022/01/17 09:15:18;;;;;;;0.28;0.20;;;;;;;;;;5051796;28;20016;-67
2022/01/17 09:17:43;;;;;;;1.02;0.47;;;;;;;;;;5052161;28;20067;-68
2022/01/17 09:20:09;;;;;;;0.43;0.30;;;;;;;;;;5051939;28;20104;-67
2022/01/17 09:22:34;;;;;;;0.15;0.15;;;;;;;;;;5052024;28;20035;-66
2022/01/17 09:24:59;;;;;;;0.30;0.20;;;;;;;;;;5051846;28;20029;-66
2022/01/17 09:27:25;;;;;;;1.13;0.20;;;;;;;;;;5051835;28;20256;-66
2022/01/17 09:29:51;;;;;;;0.45;0.30;;;;;;;;;;5052081;28;20464;-66
2022/01/17 09:32:16;;;;;;;0.50;0.30;;;;;;;;;;5051828;28;20021;-66
2022/01/17 09:34:42;;;;;;;0.30;0.30;;;;;;;;;;5052010;28;20050;-67
2022/01/17 09:37:08;;;;;;;1.15;0.32;;;;;;;;;;5051498;28;20062;-66
2022/01/17 09:39:34;;;;;;;0.85;0.40;;;;;;;;;;5051895;28;20013;-66
2022/01/17 09:41:59;;;;;;;0.65;0.38;;;;;;;;;;5051758;28;20067;-66
2022/01/17 09:44:24;;;;;;;0.73;0.47;;;;;;;;;;5052046;28;20435;-66
2022/01/17 09:46:53;;;;;;;0.37;0.20;;;;;;;;;;5051875;28;20270;-68
2022/01/17 09:49:25;;;;;;;1.33;0.30;;;;;;;;;;5051414;28;20242;-68
2022/01/17 09:52:05;;;;;;;0.65;0.30;;;;;;;;;;5051898;28;20017;-66
2022/01/17 09:54:31;;;;;;;0.65;0.17;;;;;;;;;;5051725;28;20380;-66
2022/01/17 09:56:57;;;;;;;0.22;0.20;;;;;;;;;;5051558;28;20017;-67
2022/01/17 09:59:23;;;;;;;0.30;0.28;;;;;;;;;;5051390;28;20039;-66
2022/01/17 10:01:48;;;;;;;0.50;0.30;;;;;;;;;;5051435;28;20025;-66
2022/01/17 10:04:16;;;;;;;0.77;0.30;;;;;;;;;;5051280;28;20373;-67
2022/01/17 10:06:41;;;;;;;0.20;0.20;;;;;;;;;;5050337;28;20017;-66
2022/01/17 10:09:09;;;;;;;0.37;0.30;;;;;;;;;;5051519;28;20039;-67
2022/01/17 10:11:35;;;;;;;0.20;0.20;;;;;;;;;;5051624;28;20461;-67
2022/01/17 10:14:01;;;;;;;0.60;0.53;;;;;;;;;;5051597;28;20032;-66
2022/01/17 10:16:29;;;;;;;0.45;0.20;;;;;;;;;;5051434;28;20265;-66
2022/01/17 10:19:02;;;;;;;0.38;0.10;;;;;;;;;;5051951;28;20040;-68
2022/01/17 10:21:37;;;;;;;0.30;0.17;;;;;;;;;;5055354;28;20567;-66
2022/01/17 10:24:23;;;;;;;0.20;0.20;;;;;;;;;;5055182;28;20017;-67
2022/01/17 10:35:07;;;;;;;0.45;0.22;;;;;;;;;;5055183;28;20036;-66
2022/01/17 10:37:32;;;;;;;0.55;0.20;;;;;;;;;;5054954;28;20048;-66
2022/01/17 10:39:58;;;;;;;1.23;0.40;;;;;;;;;;5054996;28;20515;-67
2022/01/17 10:42:28;;;;;;;2.10;0.50;;;;;;;;;;5054532;28;20017;-66
2022/01/17 10:44:53;;;;;;;0.70;0.30;;;;;;;;;;5054744;28;20017;-68
2022/01/17 10:47:20;;;;;;;0.57;0.30;;;;;;;;;;5054449;28;20357;-66
2022/01/17 10:49:46;;;;;;;0.65;0.20;;;;;;;;;;5054829;28;20021;-66
2022/01/17 10:52:13;;;;;;;0.77;0.30;;;;;;;;;;5053214;28;20021;-66
2022/01/17 10:54:41;;;;;;;0.95;0.40;;;;;;;;;;5054407;28;20031;-67
2022/01/17 10:57:08;;;;;;;0.28;0.20;;;;;;;;;;5054220;28;20020;-66
2022/01/17 10:59:36;;;;;;;1.27;0.20;;;;;;;;;;5054557;28;20017;-67
2022/01/17 11:02:01;;;;;;;1.15;0.43;;;;;;;;;;5054420;28;20087;-66
2022/01/17 11:04:36;;;;;;;0.77;0.20;;;;;;;;;;5054167;28;20076;-67
2022/01/17 11:07:06;;;;;;;0.85;0.32;;;;;;;;;;5054025;28;20028;-68
2022/01/17 11:10:00;;;;;;;0.30;0.20;;;;;;;;;;5054290;28;20045;-67
2022/01/17 11:12:28;;;;;;;0.30;0.20;;;;;;;;;;5050620;28;20036;-66
2022/01/17 11:14:55;;;;;;;0.80;0.40;;;;;;;;;;5054184;28;20155;-66
2022/01/17 11:17:37;;;;;;;0.17;0.17;;;;;;;;;;5052548;28;20055;-66
2022/01/17 11:20:06;;;;;;;0.90;0.17;;;;;;;;;;5054086;28;20024;-66
2022/01/17 11:22:32;;;;;;;0.85;0.25;;;;;;;;;;5054110;28;20473;-66
2022/01/17 11:24:57;;;;;;;0.22;0.20;;;;;;;;;;5053819;28;20021;-66
2022/01/17 11:27:23;;;;;;;1.40;0.50;;;;;;;;;;5052527;28;20020;-66
2022/01/17 11:29:49;;;;;;;0.50;0.30;;;;;;;;;;5053535;28;20017;-66
2022/01/17 11:32:14;;;;;;;1.13;0.45;;;;;;;;;;5053570;28;20064;-66
2022/01/17 11:34:39;;;;;;;0.85;0.30;;;;;;;;;;5053948;28;20052;-66
2022/01/17 11:37:05;;;;;;;0.87;0.27;;;;;;;;;;5053483;28;20404;-66
2022/01/17 11:39:30;;;;;;;0.35;0.17;;;;;;;;;;5053631;28;20266;-66
2022/01/17 11:41:55;;;;;;;1.38;0.35;;;;;;;;;;5053620;28;20035;-66
2022/01/17 11:44:31;;;;;;;0.75;0.40;;;;;;;;;;5053542;28;20025;-67
2022/01/17 11:46:58;;;;;;;1.17;0.20;;;;;;;;;;5053664;28;20346;-66
2022/01/17 11:49:25;;;;;;;0.68;0.20;;;;;;;;;;5053693;28;20013;-66
2022/01/17 11:51:50;;;;;;;0.40;0.20;;;;;;;;;;5053901;28;20025;-66
2022/01/17 11:54:38;;;;;;;0.90;0.20;;;;;;;;;;5052099;28;20023;-67
2022/01/17 11:57:04;;;;;;;0.10;0.10;;;;;;;;;;5053154;28;20036;-67
2022/01/17 11:59:35;;;;;;;0.40;0.20;;;;;;;;;;5054714;28;20025;-67
2022/01/17 12:02:19;;;;;;;0.52;0.30;;;;;;;;;;5054075;28;20033;-66
2022/01/17 12:05:08;;;;;;;0.63;0.30;;;;;;;;;;5067160;28;20032;-67
2022/01/17 12:07:36;;;;;;;0.40;0.30;;;;;;;;;;5007571;28;20470;-66
2022/01/17 12:10:15;;;;;;;0.40;0.20;;;;;;;;;;4995710;28;20034;-66
2022/01/17 12:12:41;;;;;;;0.25;0.20;;;;;;;;;;4991467;28;20039;-66
2022/01/17 12:15:16;;;;;;;0.75;0.20;;;;;;;;;;4991124;28;20022;-66
2022/01/17 12:17:41;;;;;;;1.52;0.50;;;;;;;;;;4997932;28;20493;-67
2022/01/17 12:20:07;;;;;;;0.80;0.40;;;;;;;;;;5011919;28;20108;-66
2022/01/17 12:22:43;;;;;;;0.65;0.25;;;;;;;;;;4991074;28;20039;-68
2022/01/17 12:25:21;;;;;;;0.95;0.40;;;;;;;;;;5005196;28;20029;-66
2022/01/17 12:27:46;;;;;;;0.50;0.30;;;;;;;;;;5014000;28;20022;-66
2022/01/17 12:30:12;;;;;;;0.65;0.20;;;;;;;;;;5013517;28;20089;-66
2022/01/17 12:32:39;;;;;;;0.43;0.28;;;;;;;;;;5006796;28;20033;-66
2022/01/17 12:35:04;;;;;;;0.43;0.30;;;;;;;;;;5009640;28;20045;-66
2022/01/17 12:37:32;;;;;;;0.40;0.40;;;;;;;;;;5009838;28;20419;-66
2022/01/17 12:40:07;;;;;;;0.57;0.40;;;;;;;;;;5010060;28;20117;-66
2022/01/17 12:42:32;;;;;;;0.45;0.20;;;;;;;;;;5008792;28;20535;-66
2022/01/17 12:45:01;;;;;;;0.50;0.20;;;;;;;;;;5036501;28;20041;-65
2022/01/17 12:47:30;;;;;;;0.40;0.30;;;;;;;;;;5051930;28;20329;-66
2022/01/17 12:49:55;;;;;;;0.88;0.40;;;;;;;;;;5051979;28;20068;-66
2022/01/17 12:52:20;;;;;;;0.63;0.10;;;;;;;;;;5051739;28;20033;-66
2022/01/17 12:54:46;;;;;;;0.63;0.22;;;;;;;;;;5052360;28;20031;-68
2022/01/17 12:57:11;;;;;;;0.95;0.40;;;;;;;;;;5051537;28;20020;-66
2022/01/17 12:59:36;;;;;;;0.43;0.20;;;;;;;;;;5055171;28;20025;-66
2022/01/17 13:02:02;;;;;;;0.52;0.30;;;;;;;;;;5068628;28;20115;-66
2022/01/17 13:04:29;;;;;;;2.55;0.25;;;;;;;;;;5060589;28;20389;-66
2022/01/17 13:06:54;;;;;;;0.45;0.13;;;;;;;;;;5051496;28;20107;-65
2022/01/17 13:09:23;;;;;;;0.10;0.10;;;;;;;;;;5050726;28;21101;-66
2022/01/17 13:11:49;;;;;;;1.15;0.20;;;;;;;;;;5050857;28;20013;-66
2022/01/17 13:14:15;;;;;;;0.30;0.30;;;;;;;;;;5050662;28;20091;-66
2022/01/17 13:16:41;;;;;;;0.28;0.15;;;;;;;;;;5050946;28;20035;-66
2022/01/17 13:19:08;;;;;;;0.73;0.20;;;;;;;;;;5054098;28;20387;-66
2022/01/17 13:21:34;;;;;;;0.50;0.40;;;;;;;;;;5072044;28;20103;-67
2022/01/17 13:24:13;;;;;;;0.68;0.20;;;;;;;;;;5070591;28;20013;-66
2022/01/17 13:26:41;;;;;;;0.63;0.30;;;;;;;;;;5051290;28;20162;-66
2022/01/17 13:29:07;;;;;;;0.32;0.17;;;;;;;;;;5051705;28;20482;-67
2022/01/17 13:31:33;;;;;;;0.75;0.30;;;;;;;;;;5051074;28;20013;-66
2022/01/17 13:34:10;;;;;;;1.48;0.55;;;;;;;;;;5051497;28;20035;-67
2022/01/17 13:36:36;;;;;;;0.98;0.30;;;;;;;;;;5051160;28;20388;-66
2022/01/17 13:39:12;;;;;;;0.30;0.20;;;;;;;;;;5051893;28;20021;-68
2022/01/17 13:41:49;;;;;;;0.93;0.32;;;;;;;;;;5051154;28;20036;-67
2022/01/17 13:44:14;;;;;;;0.47;0.13;;;;;;;;;;5051648;28;20017;-67
2022/01/17 13:47:00;;;;;;;0.73;0.22;;;;;;;;;;5051552;28;20372;-66
2022/01/17 13:49:26;;;;;;;0.38;0.25;;;;;;;;;;5051418;28;20350;-66
2022/01/17 13:51:51;;;;;;;0.45;0.20;;;;;;;;;;5051632;28;20032;-66
2022/01/17 13:54:23;;;;;;;0.60;0.20;;;;;;;;;;5054002;28;20503;-67
2022/01/17 13:56:48;;;;;;;0.63;0.30;;;;;;;;;;5053766;28;20370;-68
2022/01/17 13:59:16;;;;;;;1.48;0.38;;;;;;;;;;5055485;28;20134;-66
2022/01/17 14:01:41;;;;;;;0.10;0.10;;;;;;;;;;5054970;28;20516;-66
2022/01/17 14:04:13;;;;;;;0.93;0.20;;;;;;;;;;5054425;28;20140;-66
2022/01/17 14:06:39;;;;;;;0.90;0.43;;;;;;;;;;5055150;28;20052;-66
2022/01/17 14:09:05;;;;;;;0.75;0.20;;;;;;;;;;5053412;28;20392;-67
2022/01/17 14:11:30;;;;;;;0.70;0.40;;;;;;;;;;5072924;28;20025;-67
2022/01/17 14:13:58;;;;;;;1.00;0.45;;;;;;;;;;5069457;28;20013;-68
2022/01/17 14:16:26;;;;;;;0.30;0.22;;;;;;;;;;5055304;28;20048;-67
2022/01/17 14:18:56;;;;;;;1.15;0.30;;;;;;;;;;5055342;28;20048;-67
2022/01/17 14:21:26;;;;;;;0.65;0.40;;;;;;;;;;5058437;28;20112;-66
2022/01/17 14:24:04;;;;;;;1.02;0.50;;;;;;;;;;5052985;28;20024;-66
2022/01/17 14:26:29;;;;;;;1.08;0.50;;;;;;;;;;5053045;28;20464;-66
2022/01/17 14:28:55;;;;;;;2.97;0.80;;;;;;;;;;5054659;28;20028;-66
2022/01/17 14:31:20;;;;;;;0.80;0.60;;;;;;;;;;5054344;28;20261;-67
2022/01/17 14:33:54;;;;;;;0.95;0.57;;;;;;;;;;5054352;28;20753;-66
2022/01/17 14:36:19;;;;;;;0.65;0.50;;;;;;;;;;5047114;28;20429;-67
2022/01/17 14:38:49;;;;;;;0.68;0.30;;;;;;;;;;5053181;28;20117;-66
2022/01/17 14:41:15;;;;;;;0.88;0.30;;;;;;;;;;5034559;28;20036;-67
2022/01/17 14:43:40;;;;;;;0.20;0.20;;;;;;;;;;5056100;28;20024;-66
2022/01/17 14:46:06;;;;;;;0.30;0.20;;;;;;;;;;5050562;28;20017;-66
2022/01/17 14:48:35;;;;;;;1.42;0.30;;;;;;;;;;5055996;28;20358;-66
2022/01/17 14:51:19;;;;;;;0.60;0.25;;;;;;;;;;5053073;28;20020;-67
2022/01/17 14:53:45;;;;;;;0.43;0.20;;;;;;;;;;5051738;28;20120;-66
2022/01/17 15:01:45;;;;;;;0.45;0.32;;;;;;;;;;5053319;28;20288;-67
2022/01/17 15:04:10;;;;;;;0.50;0.30;;;;;;;;;;5049053;28;20021;-66
2022/01/17 15:06:40;;;;;;;0.55;0.35;;;;;;;;;;5052329;28;20475;-66
2022/01/17 15:09:05;;;;;;;0.90;0.28;;;;;;;;;;5052828;28;20036;-66
2022/01/17 15:11:30;;;;;;;1.17;0.30;;;;;;;;;;5052934;28;20456;-66